Time;durP1;ratioP1;P1;durP2;ratioP2;P2;SDS_P1;SDS_P2;PMS_P1;PMS_P2;Temp;Humidity;BMP_temperature;BMP_pressure;BME280_temperature;BME280_humidity;BME280_pressure;Samples;Min_cycle;Max_cycle;Signal;HPM_P1;HPM_P2
2021/05/16 00:00:24;;;;;;;3.17;1.60;;;15.70;85.00;;;;;;5105036;28;20219;-74
2021/05/16 00:02:52;;;;;;;3.47;1.60;;;15.70;85.00;;;;;;5105760;28;20532;-74
2021/05/16 00:05:22;;;;;;;4.07;2.00;;;15.70;85.10;;;;;;5104651;28;20209;-74
2021/05/16 00:07:50;;;;;;;3.20;2.30;;;15.80;85.30;;;;;;5106265;28;20223;-73
2021/05/16 00:10:20;;;;;;;5.57;1.87;;;15.80;85.20;;;;;;5104216;28;20304;-73
2021/05/16 00:12:47;;;;;;;4.03;1.57;;;15.90;85.20;;;;;;5106167;28;20295;-73
2021/05/16 00:15:17;;;;;;;4.20;1.37;;;15.90;85.50;;;;;;5103798;28;20227;-73
2021/05/16 00:17:45;;;;;;;3.40;1.40;;;15.90;84.80;;;;;;5089037;28;20227;-73
2021/05/16 00:20:16;;;;;;;3.37;1.60;;;15.90;84.90;;;;;;5102992;28;20242;-73
2021/05/16 00:22:43;;;;;;;3.00;1.90;;;15.90;85.30;;;;;;5101464;28;20251;-73
2021/05/16 00:25:14;;;;;;;3.90;1.70;;;16.00;85.30;;;;;;5101699;28;20640;-73
2021/05/16 00:27:42;;;;;;;6.40;2.27;;;16.00;85.30;;;;;;5101280;28;20217;-73
2021/05/16 00:30:11;;;;;;;4.50;1.90;;;16.10;85.30;;;;;;5101627;28;20227;-73
2021/05/16 00:32:38;;;;;;;2.03;1.80;;;16.10;85.40;;;;;;5102486;28;20566;-73
2021/05/16 00:35:08;;;;;;;2.87;1.90;;;16.10;85.10;;;;;;5104537;28;20219;-73
2021/05/16 00:37:35;;;;;;;5.50;1.47;;;16.20;84.80;;;;;;5085379;28;20228;-73
2021/05/16 00:40:04;;;;;;;2.73;1.70;;;16.30;85.00;;;;;;5104886;28;20208;-73
2021/05/16 00:42:31;;;;;;;6.13;2.07;;;16.30;85.20;;;;;;5103377;28;20449;-73
2021/05/16 00:45:20;;;;;;;5.00;1.87;;;16.30;85.40;;;;;;5086444;28;20629;-73
2021/05/16 00:47:55;;;;;;;3.60;1.53;;;16.40;85.30;;;;;;5098108;28;20216;-74
2021/05/16 00:50:28;;;;;;;2.00;1.70;;;16.40;84.90;;;;;;5104172;28;20217;-73
2021/05/16 00:52:55;;;;;;;2.83;1.80;;;16.40;84.80;;;;;;5103610;28;20241;-73
2021/05/16 00:55:23;;;;;;;1.93;1.57;;;16.40;84.80;;;;;;5083289;28;20213;-73
2021/05/16 00:57:51;;;;;;;4.20;1.60;;;16.40;84.40;;;;;;5103666;28;20227;-73
2021/05/16 01:00:32;;;;;;;2.83;1.43;;;16.40;84.30;;;;;;5104325;28;20647;-73
2021/05/16 01:02:59;;;;;;;5.10;1.90;;;16.40;84.70;;;;;;5097657;28;20221;-73
2021/05/16 01:05:27;;;;;;;6.43;2.13;;;16.40;85.00;;;;;;5105082;28;20216;-73
2021/05/16 01:07:53;;;;;;;2.93;1.70;;;16.40;85.00;;;;;;5098027;28;20239;-73
2021/05/16 01:10:21;;;;;;;5.07;1.67;;;16.40;84.90;;;;;;5097766;28;20205;-73
2021/05/16 01:12:51;;;;;;;3.17;1.67;;;16.40;84.90;;;;;;5097304;28;20243;-73
2021/05/16 01:15:21;;;;;;;5.40;2.10;;;16.40;84.80;;;;;;5098067;28;20549;-73
2021/05/16 01:17:48;;;;;;;3.30;2.13;;;16.50;84.50;;;;;;5103975;28;20210;-73
2021/05/16 01:20:27;;;;;;;2.83;2.10;;;16.50;84.20;;;;;;5101541;28;20544;-73
2021/05/16 01:22:57;;;;;;;4.33;2.60;;;16.50;84.00;;;;;;5060173;28;1103640;-73
2021/05/16 01:25:27;;;;;;;5.03;2.13;;;16.50;83.60;;;;;;5102163;28;20208;-74
2021/05/16 01:27:55;;;;;;;3.93;2.07;;;16.50;83.90;;;;;;5083589;28;20201;-73
2021/05/16 01:30:22;;;;;;;1.67;1.47;;;16.50;83.80;;;;;;5102019;28;20211;-73
2021/05/16 01:32:51;;;;;;;4.73;2.13;;;16.50;83.10;;;;;;5104392;28;20221;-73
2021/05/16 01:35:19;;;;;;;3.50;2.00;;;16.50;82.80;;;;;;5102214;28;20544;-73
2021/05/16 01:37:48;;;;;;;4.10;1.57;;;16.50;82.50;;;;;;5104818;28;20702;-73
2021/05/16 01:40:16;;;;;;;4.60;1.80;;;16.50;81.80;;;;;;5084386;28;20213;-73
2021/05/16 01:42:52;;;;;;;2.80;1.37;;;16.50;81.80;;;;;;5100841;28;20287;-73
2021/05/16 01:45:24;;;;;;;3.50;1.67;;;16.50;81.80;;;;;;5081964;28;20575;-73
2021/05/16 01:47:53;;;;;;;1.57;1.30;;;16.50;81.80;;;;;;5102451;28;20210;-74
2021/05/16 01:50:23;;;;;;;3.83;1.60;;;16.50;81.80;;;;;;5099560;28;20653;-73
2021/05/16 01:52:50;;;;;;;4.93;1.27;;;16.60;81.90;;;;;;5095475;28;20223;-73
2021/05/16 01:55:19;;;;;;;2.13;1.40;;;16.60;81.70;;;;;;5081021;28;20220;-73
2021/05/16 01:57:47;;;;;;;6.30;1.50;;;16.60;81.30;;;;;;5102472;28;20205;-73
2021/05/16 02:00:30;;;;;;;2.10;1.30;;;16.60;81.20;;;;;;5102976;28;20204;-73
2021/05/16 02:02:58;;;;;;;8.80;1.47;;;16.60;81.30;;;;;;5098228;28;20240;-73
2021/05/16 02:05:25;;;;;;;4.47;1.20;;;16.50;81.20;;;;;;5101110;28;20298;-74
2021/05/16 02:07:53;;;;;;;6.23;1.40;;;16.60;81.20;;;;;;5083950;28;20224;-74
2021/05/16 02:10:21;;;;;;;5.87;1.60;;;16.60;81.10;;;;;;5104580;28;20207;-74
2021/05/16 02:12:49;;;;;;;3.87;0.90;;;16.50;81.00;;;;;;5083826;28;20216;-73
2021/05/16 02:15:17;;;;;;;3.20;1.10;;;16.50;81.00;;;;;;5087002;28;20387;-73
2021/05/16 02:17:44;;;;;;;2.60;1.00;;;16.50;81.10;;;;;;5101434;28;20224;-73
2021/05/16 02:20:15;;;;;;;6.20;1.23;;;16.50;80.90;;;;;;5086706;28;20231;-73
2021/05/16 02:22:42;;;;;;;1.27;1.00;;;16.50;80.50;;;;;;5102676;28;20243;-73
2021/05/16 02:25:09;;;;;;;1.03;0.70;;;16.50;80.60;;;;;;5101709;28;20208;-74
2021/05/16 02:27:37;;;;;;;1.47;1.00;;;16.50;80.90;;;;;;5097588;28;20205;-73
2021/05/16 02:30:08;;;;;;;6.80;1.17;;;16.40;81.00;;;;;;5102964;28;20200;-73
2021/05/16 02:32:36;;;;;;;2.57;0.90;;;16.40;80.90;;;;;;5102927;28;20223;-73
2021/05/16 02:35:10;;;;;;;3.50;1.10;;;16.40;80.80;;;;;;5103403;28;20607;-73
2021/05/16 02:37:38;;;;;;;2.77;1.47;;;16.30;80.40;;;;;;5103443;28;20204;-73
2021/05/16 02:40:07;;;;;;;4.30;1.47;;;16.30;80.20;;;;;;5081843;28;20557;-73
2021/05/16 02:42:34;;;;;;;2.30;0.97;;;16.30;80.10;;;;;;5083460;28;20564;-73
2021/05/16 02:45:01;;;;;;;3.97;1.07;;;16.30;80.00;;;;;;5086052;28;20238;-73
2021/05/16 02:47:29;;;;;;;2.30;1.03;;;16.20;79.80;;;;;;5101435;28;20224;-73
2021/05/16 02:49:56;;;;;;;2.63;1.27;;;16.20;79.80;;;;;;5103401;28;20226;-72
2021/05/16 02:52:23;;;;;;;4.67;1.73;;;16.10;79.80;;;;;;5099380;28;20212;-72
2021/05/16 02:54:50;;;;;;;6.47;1.77;;;16.10;80.10;;;;;;5101306;28;20569;-72
2021/05/16 02:57:17;;;;;;;5.80;1.50;;;16.00;80.40;;;;;;5101954;28;20547;-72
2021/05/16 02:59:44;;;;;;;2.20;1.60;;;15.90;80.60;;;;;;5105068;28;20219;-74
2021/05/16 03:02:12;;;;;;;2.00;1.43;;;15.90;80.80;;;;;;5107163;28;20204;-73
2021/05/16 03:04:39;;;;;;;2.40;1.40;;;15.80;80.70;;;;;;5106013;28;20688;-73
2021/05/16 03:07:06;;;;;;;3.67;1.77;;;15.70;80.60;;;;;;5090139;28;20311;-73
2021/05/16 03:09:35;;;;;;;6.93;1.60;;;15.70;80.60;;;;;;5104798;28;20745;-72
2021/05/16 03:12:03;;;;;;;2.27;1.37;;;15.60;80.70;;;;;;5089192;28;20219;-72
2021/05/16 03:14:31;;;;;;;2.70;1.80;;;15.60;80.70;;;;;;5104122;28;20295;-73
2021/05/16 03:16:58;;;;;;;2.90;1.67;;;15.50;80.80;;;;;;5104694;28;20213;-74
2021/05/16 03:19:26;;;;;;;3.20;1.87;;;15.50;80.90;;;;;;5106741;28;20208;-74
2021/05/16 03:21:55;;;;;;;6.60;2.00;;;15.50;81.20;;;;;;5103851;28;20257;-74
2021/05/16 03:24:22;;;;;;;4.50;1.80;;;15.40;81.20;;;;;;5086174;28;20239;-74
2021/05/16 03:26:50;;;;;;;3.23;1.73;;;15.30;81.40;;;;;;5085981;28;20217;-74
2021/05/16 03:29:17;;;;;;;2.53;2.10;;;15.20;81.70;;;;;;5091338;28;20219;-74
2021/05/16 03:31:44;;;;;;;3.43;2.00;;;15.10;81.80;;;;;;5103909;28;20295;-74
2021/05/16 03:34:11;;;;;;;5.17;2.00;;;15.10;81.80;;;;;;5103529;28;20209;-75
2021/05/16 03:36:38;;;;;;;8.43;2.23;;;15.00;81.90;;;;;;5106743;28;20606;-73
2021/05/16 03:39:06;;;;;;;2.80;2.00;;;15.00;81.90;;;;;;5084396;28;20576;-73
2021/05/16 03:41:34;;;;;;;4.37;2.63;;;14.90;82.00;;;;;;5106512;28;20230;-73
2021/05/16 03:44:01;;;;;;;7.53;3.30;;;14.80;82.10;;;;;;5103810;28;20681;-73
2021/05/16 03:46:29;;;;;;;3.60;2.77;;;14.70;82.30;;;;;;5106374;28;20204;-73
2021/05/16 03:48:56;;;;;;;2.93;2.50;;;14.60;82.30;;;;;;5100245;28;20219;-73
2021/05/16 03:51:25;;;;;;;7.63;3.20;;;14.50;82.50;;;;;;5102947;28;20204;-74
2021/05/16 03:53:52;;;;;;;4.00;2.40;;;14.50;82.70;;;;;;5100189;28;20652;-74
2021/05/16 03:56:19;;;;;;;3.80;3.27;;;14.50;82.90;;;;;;5082772;28;20266;-74
2021/05/16 03:58:46;;;;;;;5.47;2.90;;;14.50;83.10;;;;;;5098313;28;20212;-74
2021/05/16 04:01:13;;;;;;;3.87;2.97;;;14.50;83.30;;;;;;5100044;28;20671;-74
2021/05/16 04:03:40;;;;;;;6.17;2.80;;;14.50;83.40;;;;;;5081710;28;20685;-74
2021/05/16 04:06:08;;;;;;;10.73;3.27;;;14.50;83.60;;;;;;5102571;28;20213;-74
2021/05/16 04:08:34;;;;;;;5.30;2.93;;;14.40;83.50;;;;;;5099837;28;20220;-74
2021/05/16 04:11:01;;;;;;;8.10;3.20;;;14.40;83.50;;;;;;5102829;28;20212;-74
2021/05/16 04:13:29;;;;;;;5.43;3.13;;;14.40;83.40;;;;;;5099911;28;20217;-73
2021/05/16 04:15:58;;;;;;;6.87;3.10;;;14.40;83.40;;;;;;5107054;28;20213;-73
2021/05/16 04:18:25;;;;;;;6.77;2.70;;;14.50;83.40;;;;;;5103624;28;20223;-73
2021/05/16 04:20:52;;;;;;;5.43;3.00;;;14.60;83.30;;;;;;5088920;28;20220;-74
2021/05/16 04:23:19;;;;;;;5.90;3.00;;;14.70;83.30;;;;;;5103199;28;20700;-74
2021/05/16 04:25:46;;;;;;;4.63;3.20;;;14.80;83.30;;;;;;5085485;28;20209;-73
2021/05/16 04:28:14;;;;;;;4.83;3.17;;;14.90;83.20;;;;;;5089075;28;20224;-74
2021/05/16 04:30:41;;;;;;;3.87;3.40;;;15.00;83.00;;;;;;5085652;28;20213;-73
2021/05/16 04:33:08;;;;;;;6.57;3.37;;;15.10;82.90;;;;;;5102090;28;20676;-73
2021/05/16 04:35:35;;;;;;;7.97;3.87;;;15.20;83.00;;;;;;5106071;28;20215;-75
2021/05/16 04:38:03;;;;;;;5.30;3.77;;;15.20;82.90;;;;;;5085576;28;20213;-73
2021/05/16 04:40:30;;;;;;;10.07;4.23;;;15.30;82.90;;;;;;5085079;28;20205;-73
2021/05/16 04:42:57;;;;;;;7.03;4.07;;;15.40;82.90;;;;;;5102587;28;20621;-74
2021/05/16 04:45:24;;;;;;;5.17;3.80;;;15.40;82.70;;;;;;5106151;28;20208;-74
2021/05/16 04:47:51;;;;;;;7.00;3.90;;;15.50;82.70;;;;;;5085271;28;20212;-74
2021/05/16 04:50:19;;;;;;;6.47;3.90;;;15.50;82.80;;;;;;5105566;28;20558;-74
2021/05/16 04:52:46;;;;;;;5.30;3.93;;;15.50;82.80;;;;;;5083747;28;20205;-74
2021/05/16 04:55:14;;;;;;;6.30;3.77;;;15.50;82.80;;;;;;5103629;28;20607;-74
2021/05/16 04:57:44;;;;;;;12.57;4.30;;;15.60;83.10;;;;;;5108527;28;20248;-74
2021/05/16 05:00:12;;;;;;;4.00;3.57;;;15.60;83.10;;;;;;5086817;28;20209;-74
2021/05/16 05:02:42;;;;;;;5.07;3.80;;;15.60;83.00;;;;;;5107973;28;20220;-73
2021/05/16 05:05:10;;;;;;;7.57;4.50;;;15.70;83.00;;;;;;5099979;28;20259;-74
2021/05/16 05:07:37;;;;;;;6.20;4.17;;;15.70;82.80;;;;;;5107344;28;20213;-73
2021/05/16 05:10:05;;;;;;;6.03;4.20;;;15.80;82.60;;;;;;5103688;28;20653;-73
2021/05/16 05:12:32;;;;;;;9.47;4.33;;;15.80;82.20;;;;;;5089347;28;20222;-73
2021/05/16 05:15:00;;;;;;;7.07;4.33;;;15.80;82.00;;;;;;5103354;28;20223;-73
2021/05/16 05:17:31;;;;;;;5.30;4.17;;;15.90;81.60;;;;;;5105856;28;20270;-74
2021/05/16 05:19:58;;;;;;;10.03;4.77;;;15.90;81.50;;;;;;5089466;28;20295;-73
2021/05/16 05:22:25;;;;;;;7.73;4.53;;;16.00;81.50;;;;;;5101427;28;20262;-73
2021/05/16 05:24:52;;;;;;;6.47;4.57;;;16.00;81.50;;;;;;5105850;28;20303;-73
2021/05/16 05:27:19;;;;;;;4.77;4.30;;;16.10;81.60;;;;;;5102820;28;20644;-73
2021/05/16 05:29:46;;;;;;;8.17;5.17;;;16.10;81.60;;;;;;5106627;28;20212;-74
2021/05/16 05:32:13;;;;;;;7.57;6.40;;;16.20;81.50;;;;;;5085264;28;20549;-73
2021/05/16 05:34:41;;;;;;;7.40;5.60;;;16.30;81.00;;;;;;5105703;28;20552;-73
2021/05/16 05:37:08;;;;;;;8.57;5.57;;;16.40;80.60;;;;;;5103611;28;20232;-73
2021/05/16 05:39:35;;;;;;;7.57;5.73;;;16.40;80.30;;;;;;5087855;28;20227;-73
2021/05/16 05:42:02;;;;;;;8.17;6.07;;;16.50;80.20;;;;;;5102357;28;20212;-73
2021/05/16 05:44:31;;;;;;;8.87;5.93;;;16.50;80.10;;;;;;5105672;28;20253;-73
2021/05/16 05:46:58;;;;;;;9.57;5.53;;;16.60;80.00;;;;;;5084316;28;20213;-73
2021/05/16 05:49:25;;;;;;;13.70;5.90;;;16.60;79.80;;;;;;5099980;28;20535;-74
2021/05/16 05:51:52;;;;;;;7.60;5.23;;;16.60;79.60;;;;;;5083992;28;20591;-74
2021/05/16 05:54:19;;;;;;;7.03;5.67;;;16.70;79.50;;;;;;5083808;28;20223;-73
2021/05/16 05:56:46;;;;;;;12.17;6.23;;;16.80;79.30;;;;;;5083472;28;20208;-74
2021/05/16 05:59:14;;;;;;;7.07;6.17;;;16.90;79.10;;;;;;5087070;28;20204;-73
2021/05/16 06:01:41;;;;;;;9.80;6.00;;;16.90;78.90;;;;;;5099952;28;20215;-74
2021/05/16 06:04:08;;;;;;;6.97;6.23;;;17.10;78.70;;;;;;5100428;28;20612;-74
2021/05/16 06:06:35;;;;;;;9.67;6.90;;;17.20;78.50;;;;;;5103702;28;20215;-73
2021/05/16 06:09:03;;;;;;;270.63;178.77;;;17.30;78.00;;;;;;5097200;28;20212;-73
2021/05/16 06:11:30;;;;;;;328.80;233.70;;;17.40;77.40;;;;;;5104027;28;20228;-73
2021/05/16 06:13:57;;;;;;;436.40;235.80;;;17.50;77.30;;;;;;5081589;28;20212;-73
2021/05/16 06:16:24;;;;;;;304.93;143.90;;;17.60;77.10;;;;;;5082410;28;20219;-73
2021/05/16 06:18:53;;;;;;;68.03;46.53;;;17.70;76.70;;;;;;5099518;28;20215;-73
2021/05/16 06:21:20;;;;;;;43.33;30.53;;;17.80;76.30;;;;;;5100517;28;20290;-73
2021/05/16 06:24:01;;;;;;;7.43;5.00;;;17.90;76.00;;;;;;5101331;28;20235;-73
2021/05/16 06:26:29;;;;;;;5.90;4.77;;;18.00;75.70;;;;;;5102491;28;20209;-73
2021/05/16 06:28:57;;;;;;;11.43;4.60;;;18.10;75.60;;;;;;5101143;28;20213;-73
2021/05/16 06:31:24;;;;;;;9.93;6.00;;;18.20;75.10;;;;;;5100162;28;20246;-73
2021/05/16 06:33:51;;;;;;;10.67;7.60;;;18.30;74.40;;;;;;5100891;28;20205;-73
2021/05/16 06:36:18;;;;;;;9.40;6.33;;;18.50;74.10;;;;;;5098629;28;20218;-74
2021/05/16 06:38:45;;;;;;;7.57;4.77;;;18.60;73.90;;;;;;5084187;28;20216;-74
2021/05/16 06:41:12;;;;;;;7.90;4.63;;;18.70;73.50;;;;;;5080543;28;20228;-74
2021/05/16 06:43:40;;;;;;;9.37;5.57;;;18.80;73.30;;;;;;5101818;28;20219;-73
2021/05/16 06:46:07;;;;;;;13.40;5.73;;;18.90;72.80;;;;;;5103568;28;20209;-73
2021/05/16 06:48:37;;;;;;;8.67;5.20;;;19.00;72.80;;;;;;5081006;28;20204;-73
2021/05/16 06:51:05;;;;;;;4.77;4.27;;;19.10;72.10;;;;;;5084687;28;20216;-73
2021/05/16 06:53:32;;;;;;;8.67;4.87;;;19.20;72.00;;;;;;5098430;28;20205;-73
2021/05/16 06:56:00;;;;;;;5.70;3.97;;;19.40;71.90;;;;;;5100467;28;20212;-74
2021/05/16 06:58:28;;;;;;;6.13;3.77;;;19.60;71.40;;;;;;5082735;28;20430;-74
2021/05/16 07:00:55;;;;;;;5.57;4.27;;;19.70;71.00;;;;;;5083251;28;20209;-73
2021/05/16 07:03:22;;;;;;;7.47;3.60;;;19.80;70.80;;;;;;5099790;28;20624;-73
2021/05/16 07:05:50;;;;;;;7.10;3.90;;;19.90;70.80;;;;;;5102524;28;20726;-73
2021/05/16 07:08:17;;;;;;;8.53;3.97;;;20.00;70.70;;;;;;5101060;28;20213;-74
2021/05/16 07:10:44;;;;;;;10.90;4.70;;;20.00;70.70;;;;;;5081559;28;20636;-74
2021/05/16 07:13:11;;;;;;;5.80;4.33;;;20.10;70.40;;;;;;5102656;28;20219;-74
2021/05/16 07:15:38;;;;;;;7.27;5.13;;;20.10;70.10;;;;;;5098746;28;20217;-74
2021/05/16 07:18:05;;;;;;;7.33;4.27;;;20.10;69.80;;;;;;5101117;28;20227;-75
2021/05/16 07:20:32;;;;;;;11.87;5.53;;;20.10;69.90;;;;;;5095857;28;20219;-74
2021/05/16 07:22:59;;;;;;;6.30;3.70;;;20.20;69.80;;;;;;5102447;28;20608;-74
2021/05/16 07:25:26;;;;;;;5.53;3.60;;;20.20;69.30;;;;;;5085335;28;20863;-74
2021/05/16 07:27:54;;;;;;;6.70;4.10;;;20.30;69.00;;;;;;5083200;28;20208;-74
2021/05/16 07:30:22;;;;;;;4.77;3.30;;;20.40;68.60;;;;;;5100908;28;20216;-74
2021/05/16 07:32:49;;;;;;;7.97;3.13;;;20.60;68.60;;;;;;5101186;28;20639;-75
2021/05/16 07:35:16;;;;;;;7.50;2.93;;;20.70;68.30;;;;;;5081247;28;20243;-74
2021/05/16 07:37:44;;;;;;;6.90;3.40;;;20.80;67.80;;;;;;5084622;28;20664;-75
2021/05/16 07:40:12;;;;;;;6.20;3.50;;;20.80;67.50;;;;;;5100193;28;20219;-74
2021/05/16 07:42:39;;;;;;;5.57;3.30;;;20.80;67.70;;;;;;5101185;28;20285;-74
2021/05/16 07:45:10;;;;;;;10.77;2.87;;;20.90;67.60;;;;;;5102617;28;20301;-74
2021/05/16 07:47:38;;;;;;;7.10;3.23;;;20.90;67.10;;;;;;5100956;28;20304;-74
2021/05/16 07:50:08;;;;;;;5.83;2.90;;;20.90;67.10;;;;;;5106307;28;20208;-75
2021/05/16 07:52:35;;;;;;;4.17;2.50;;;20.90;67.20;;;;;;5086221;28;20213;-74
2021/05/16 07:55:03;;;;;;;4.10;2.70;;;21.00;67.60;;;;;;5102904;28;20205;-74
2021/05/16 07:57:30;;;;;;;3.77;2.97;;;21.00;67.60;;;;;;5089519;28;20216;-74
2021/05/16 07:59:58;;;;;;;5.00;3.10;;;21.00;67.40;;;;;;5086016;28;20228;-74
2021/05/16 08:02:25;;;;;;;5.10;3.00;;;21.00;67.40;;;;;;5106424;28;20205;-74
2021/05/16 08:04:52;;;;;;;5.87;3.10;;;21.00;67.30;;;;;;5089226;28;20232;-74
2021/05/16 08:07:19;;;;;;;5.00;2.87;;;21.10;67.30;;;;;;5104108;28;20227;-74
2021/05/16 08:09:46;;;;;;;3.70;2.20;;;21.10;67.50;;;;;;5089406;28;20219;-74
2021/05/16 08:12:13;;;;;;;3.03;2.73;;;21.30;67.20;;;;;;5103661;28;20637;-74
2021/05/16 08:14:40;;;;;;;2.90;2.37;;;21.30;66.90;;;;;;5106710;28;20216;-75
2021/05/16 08:17:07;;;;;;;2.30;1.97;;;21.40;66.70;;;;;;5103303;28;20221;-74
2021/05/16 08:19:34;;;;;;;6.20;2.70;;;21.40;66.10;;;;;;5107138;28;20217;-74
2021/05/16 08:22:01;;;;;;;3.57;2.37;;;21.50;65.90;;;;;;5085725;28;20245;-74
2021/05/16 08:24:32;;;;;;;2.70;2.17;;;21.50;66.00;;;;;;5082100;28;20225;-74
2021/05/16 08:27:00;;;;;;;2.90;2.53;;;21.70;65.90;;;;;;5099531;28;20635;-74
2021/05/16 08:29:27;;;;;;;3.87;2.30;;;21.70;65.50;;;;;;5107313;28;20623;-74
2021/05/16 08:31:55;;;;;;;2.93;2.23;;;21.80;65.50;;;;;;5085843;28;20205;-74
2021/05/16 08:34:22;;;;;;;2.83;2.13;;;21.80;65.50;;;;;;5081889;28;20217;-74
2021/05/16 08:36:50;;;;;;;4.17;2.10;;;21.80;65.20;;;;;;5099255;28;20661;-74
2021/05/16 08:39:17;;;;;;;3.33;2.10;;;21.80;65.20;;;;;;5098903;28;20240;-74
2021/05/16 08:41:44;;;;;;;5.40;3.93;;;21.90;65.10;;;;;;5099024;28;20213;-74
2021/05/16 08:44:11;;;;;;;6.03;3.33;;;21.90;65.20;;;;;;5086693;28;20277;-74
2021/05/16 08:46:39;;;;;;;3.87;3.10;;;22.00;65.00;;;;;;5098853;28;20286;-74
2021/05/16 08:49:06;;;;;;;4.47;2.93;;;22.10;64.70;;;;;;5085291;28;20274;-75
2021/05/16 08:51:34;;;;;;;2.97;2.40;;;22.20;64.10;;;;;;5098380;28;20217;-74
2021/05/16 08:54:02;;;;;;;5.27;2.43;;;22.10;63.90;;;;;;5081644;28;20208;-74
2021/05/16 08:56:29;;;;;;;2.40;1.63;;;22.10;63.80;;;;;;5102114;28;20227;-74
2021/05/16 08:58:56;;;;;;;6.17;2.30;;;22.10;63.30;;;;;;5098763;28;20227;-74
2021/05/16 09:01:25;;;;;;;9.33;2.27;;;22.10;62.30;;;;;;5101346;28;20215;-75
2021/05/16 09:03:53;;;;;;;5.37;2.30;;;22.10;62.20;;;;;;5077634;28;20223;-75
2021/05/16 09:06:33;;;;;;;4.30;1.77;;;22.10;61.50;;;;;;5077977;28;20572;-74
2021/05/16 09:09:26;;;;;;;5.83;2.63;;;22.00;61.20;;;;;;5104498;28;20208;-74
2021/05/16 09:11:56;;;;;;;4.20;3.13;;;21.90;62.10;;;;;;5101116;28;20209;-74
2021/05/16 09:14:43;;;;;;;12.20;3.03;;;21.90;62.50;;;;;;5104709;28;20205;-74
2021/05/16 09:17:27;;;;;;;3.63;2.40;;;21.90;62.50;;;;;;5077175;28;20214;-74
2021/05/16 09:19:57;;;;;;;7.93;4.20;;;22.00;61.50;;;;;;5102314;28;20836;-74
2021/05/16 09:22:30;;;;;;;9.93;4.13;;;22.10;61.90;;;;;;5083677;28;20232;-74
2021/05/16 09:25:18;;;;;;;5.10;4.60;;;22.10;61.70;;;;;;5102930;28;20225;-74
2021/05/16 09:27:49;;;;;;;9.33;5.43;;;22.10;61.90;;;;;;5103198;28;20209;-74
2021/05/16 09:30:20;;;;;;;6.97;5.03;;;22.00;63.30;;;;;;5100747;28;20215;-74
2021/05/16 09:33:17;;;;;;;5.17;4.67;;;21.90;63.30;;;;;;5105516;28;20208;-74
2021/05/16 09:35:50;;;;;;;10.50;3.60;;;21.90;63.30;;;;;;5000169;28;20220;-74
2021/05/16 09:38:19;;;;;;;4.47;3.10;;;22.00;63.50;;;;;;4997050;28;20224;-74
2021/05/16 09:40:55;;;;;;;5.23;2.97;;;22.10;62.60;;;;;;4986891;28;20239;-74
2021/05/16 09:43:27;;;;;;;6.33;2.37;;;22.00;62.60;;;;;;4969729;28;20216;-74
2021/05/16 09:45:55;;;;;;;4.70;2.83;;;21.90;61.50;;;;;;5001518;28;20252;-74
2021/05/16 09:48:31;;;;;;;4.80;3.83;;;21.80;61.90;;;;;;5001972;28;20633;-74
2021/05/16 09:51:15;;;;;;;6.33;4.83;;;21.70;62.40;;;;;;4980202;28;20212;-74
2021/05/16 09:53:51;;;;;;;5.27;4.40;;;21.60;64.20;;;;;;5085352;28;20216;-74
2021/05/16 09:56:22;;;;;;;5.67;3.63;;;21.60;63.80;;;;;;5102418;28;20213;-74
2021/05/16 09:58:51;;;;;;;3.70;3.40;;;21.60;64.40;;;;;;5105076;28;20213;-74
2021/05/16 10:01:21;;;;;;;4.60;2.93;;;21.60;64.50;;;;;;5079794;28;20231;-74
2021/05/16 10:03:49;;;;;;;7.50;4.07;;;21.50;64.20;;;;;;5093775;28;20214;-74
2021/05/16 10:06:18;;;;;;;4.33;3.60;;;21.50;64.60;;;;;;5097797;28;20314;-74
2021/05/16 10:08:48;;;;;;;3.83;3.50;;;21.30;64.50;;;;;;5087135;28;20212;-74
2021/05/16 10:11:21;;;;;;;6.20;4.17;;;21.20;64.80;;;;;;5084027;28;20215;-75
2021/05/16 10:13:58;;;;;;;6.90;4.70;;;21.10;65.60;;;;;;5103579;28;20212;-74
2021/05/16 10:16:27;;;;;;;6.40;3.60;;;21.10;66.40;;;;;;5103958;28;20212;-74
2021/05/16 10:18:55;;;;;;;4.17;3.37;;;21.00;66.40;;;;;;5101688;28;20225;-74
2021/05/16 10:21:24;;;;;;;3.93;3.10;;;21.00;66.40;;;;;;5086417;28;20279;-74
2021/05/16 10:24:13;;;;;;;4.20;3.40;;;20.90;66.50;;;;;;5099231;28;20227;-74
2021/05/16 10:26:44;;;;;;;6.17;3.20;;;20.80;66.30;;;;;;5083073;28;20234;-74
2021/05/16 10:29:16;;;;;;;5.30;3.03;;;20.70;66.80;;;;;;5101244;28;20291;-74
2021/05/16 10:31:52;;;;;;;5.67;4.40;;;20.70;67.10;;;;;;5101161;28;20549;-74
2021/05/16 10:34:28;;;;;;;5.60;4.40;;;20.60;67.60;;;;;;5098260;28;20666;-74
2021/05/16 10:36:57;;;;;;;8.23;4.10;;;20.50;68.00;;;;;;5102659;28;20196;-75
2021/05/16 10:39:40;;;;;;;6.80;4.20;;;20.50;68.70;;;;;;5097313;28;20197;-74
2021/05/16 10:42:19;;;;;;;6.30;4.33;;;20.50;69.00;;;;;;5097216;28;20209;-74
2021/05/16 10:45:05;;;;;;;6.43;4.40;;;20.50;69.80;;;;;;5080881;28;20223;-74
2021/05/16 10:47:42;;;;;;;4.07;3.30;;;20.60;70.00;;;;;;5098205;28;20220;-74
2021/05/16 10:50:15;;;;;;;5.87;3.50;;;20.70;68.80;;;;;;5085081;28;20220;-74
2021/05/16 10:53:21;;;;;;;5.33;3.53;;;20.70;68.40;;;;;;5094252;28;20216;-74
2021/05/16 10:56:05;;;;;;;8.30;4.50;;;20.80;68.70;;;;;;5064009;28;20227;-74
2021/05/16 10:58:32;;;;;;;5.27;3.50;;;20.90;68.60;;;;;;5093822;28;20255;-74
2021/05/16 11:01:11;;;;;;;5.30;3.93;;;20.90;68.80;;;;;;5091914;28;20588;-74
2021/05/16 11:03:59;;;;;;;9.70;4.10;;;21.00;67.70;;;;;;5103391;28;20220;-74
2021/05/16 11:06:29;;;;;;;5.77;3.90;;;21.10;67.90;;;;;;5099371;28;20255;-74
2021/05/16 11:09:00;;;;;;;6.00;4.03;;;21.40;67.80;;;;;;5102545;28;20211;-74
2021/05/16 11:11:32;;;;;;;3.43;3.13;;;21.60;66.90;;;;;;5097820;28;20616;-74
2021/05/16 11:14:11;;;;;;;5.47;3.77;;;21.90;65.90;;;;;;5071509;28;20211;-74
2021/05/16 11:16:51;;;;;;;5.67;3.57;;;22.10;64.50;;;;;;5096669;28;20636;-74
2021/05/16 11:19:21;;;;;;;4.00;3.67;;;22.20;64.50;;;;;;5102754;28;20216;-74
2021/05/16 11:21:49;;;;;;;4.37;3.93;;;22.20;64.00;;;;;;5082042;28;20247;-74
2021/05/16 11:24:34;;;;;;;11.10;4.10;;;22.30;64.00;;;;;;5101899;28;20215;-74
2021/05/16 11:27:12;;;;;;;5.63;4.53;;;22.30;64.90;;;;;;5103582;28;20545;-74
2021/05/16 11:29:39;;;;;;;4.70;4.30;;;22.50;64.80;;;;;;5104378;28;20220;-74
2021/05/16 11:32:06;;;;;;;6.50;4.50;;;22.60;63.50;;;;;;5103673;28;20207;-74
2021/05/16 11:34:33;;;;;;;6.53;4.70;;;22.60;64.50;;;;;;5104601;28;20323;-74
2021/05/16 11:37:19;;;;;;;6.37;4.03;;;22.50;64.20;;;;;;5104213;28;20209;-75
2021/05/16 11:39:45;;;;;;;9.77;4.70;;;22.40;64.50;;;;;;5086130;28;20198;-74
2021/05/16 11:42:32;;;;;;;7.97;4.17;;;22.40;65.10;;;;;;5088088;28;20216;-74
2021/05/16 11:45:00;;;;;;;5.73;3.70;;;22.40;65.10;;;;;;5100340;28;20568;-75
2021/05/16 11:47:53;;;;;;;4.90;4.10;;;22.30;64.50;;;;;;5088188;28;20599;-74
2021/05/16 11:50:20;;;;;;;5.93;3.73;;;22.10;65.90;;;;;;5099922;28;20589;-74
2021/05/16 11:52:59;;;;;;;4.50;3.73;;;22.00;66.70;;;;;;5107918;28;20214;-75
2021/05/16 11:55:26;;;;;;;5.90;3.53;;;21.90;66.50;;;;;;5100912;28;20269;-74
2021/05/16 11:57:53;;;;;;;9.30;4.20;;;21.90;66.80;;;;;;5108554;28;20608;-74
2021/05/16 12:00:21;;;;;;;5.67;3.83;;;21.90;67.70;;;;;;5104733;28;20224;-74
2021/05/16 12:02:48;;;;;;;5.80;3.33;;;21.90;68.10;;;;;;5104827;28;20230;-74
2021/05/16 12:05:30;;;;;;;5.57;1.53;;;21.90;68.50;;;;;;5088423;28;20232;-74
2021/05/16 12:07:57;;;;;;;2.40;1.50;;;21.90;67.50;;;;;;5107085;28;20205;-74
2021/05/16 12:10:24;;;;;;;4.20;1.33;;;21.90;67.50;;;;;;5104407;28;20386;-74
2021/05/16 12:12:51;;;;;;;3.27;1.27;;;22.00;67.60;;;;;;5112653;28;20235;-74
2021/05/16 12:15:25;;;;;;;1.50;1.10;;;22.00;66.70;;;;;;5103582;28;20242;-74
2021/05/16 12:17:52;;;;;;;3.63;1.30;;;22.10;67.40;;;;;;5082099;28;20213;-74
2021/05/16 12:20:23;;;;;;;2.90;1.23;;;22.10;66.70;;;;;;5097544;28;20534;-74
2021/05/16 12:22:51;;;;;;;4.83;1.17;;;22.10;66.00;;;;;;5099773;28;20244;-74
2021/05/16 12:25:18;;;;;;;2.70;1.20;;;22.00;65.90;;;;;;5106443;28;20239;-74
2021/05/16 12:27:45;;;;;;;5.13;1.80;;;22.00;66.50;;;;;;5089646;28;20636;-74
2021/05/16 12:30:13;;;;;;;6.47;1.63;;;21.90;66.70;;;;;;5100884;28;20197;-74
2021/05/16 12:32:41;;;;;;;3.67;1.70;;;21.90;67.30;;;;;;5100500;28;20573;-74
2021/05/16 12:35:08;;;;;;;4.37;1.13;;;21.80;67.90;;;;;;5093062;28;20205;-74
2021/05/16 12:37:35;;;;;;;4.57;1.10;;;21.80;67.80;;;;;;5076838;28;20205;-74
2021/05/16 12:40:05;;;;;;;3.47;1.43;;;21.80;67.60;;;;;;5097983;28;20212;-74
2021/05/16 12:42:37;;;;;;;4.03;1.37;;;21.70;67.70;;;;;;5095148;28;20266;-75
2021/05/16 12:45:25;;;;;;;3.90;1.20;;;21.70;68.00;;;;;;5092426;28;20201;-74
2021/05/16 12:48:06;;;;;;;2.43;1.47;;;21.70;67.80;;;;;;5094638;28;20211;-75
2021/05/16 12:50:41;;;;;;;1.27;1.00;;;21.70;68.00;;;;;;5063473;28;20237;-74
2021/05/16 12:53:30;;;;;;;1.57;1.03;;;21.70;67.90;;;;;;5099032;28;20196;-74
2021/05/16 12:56:10;;;;;;;4.13;1.47;;;21.70;68.70;;;;;;5083717;28;20220;-74
2021/05/16 12:58:47;;;;;;;3.43;1.50;;;21.70;68.10;;;;;;5096833;28;20228;-74